sensor_id;sensor_type;location;lat;lon;timestamp;P1;durP1;ratioP1;P2;durP2;ratioP2
72198;SDS011;60103;51.014;16.992;2022-07-06T00:01:59;10.20;;;5.60;;
72198;SDS011;60103;51.014;16.992;2022-07-06T00:04:27;14.10;;;6.00;;
72198;SDS011;60103;51.014;16.992;2022-07-06T00:06:54;11.20;;;6.00;;
72198;SDS011;60103;51.014;16.992;2022-07-06T00:09:21;12.30;;;6.20;;
72198;SDS011;60103;51.014;16.992;2022-07-06T00:11:49;12.00;;;6.20;;
72198;SDS011;60103;51.014;16.992;2022-07-06T00:14:16;12.00;;;6.40;;
72198;SDS011;60103;51.014;16.992;2022-07-06T00:16:44;10.60;;;6.40;;
72198;SDS011;60103;51.014;16.992;2022-07-06T00:19:13;13.40;;;6.50;;
72198;SDS011;60103;51.014;16.992;2022-07-06T00:21:40;11.20;;;5.90;;
72198;SDS011;60103;51.014;16.992;2022-07-06T00:24:07;12.40;;;6.50;;
72198;SDS011;60103;51.014;16.992;2022-07-06T00:26:34;13.90;;;6.90;;
72198;SDS011;60103;51.014;16.992;2022-07-06T00:29:02;14.00;;;7.30;;
72198;SDS011;60103;51.014;16.992;2022-07-06T00:31:29;12.40;;;6.50;;
72198;SDS011;60103;51.014;16.992;2022-07-06T00:33:57;13.40;;;6.50;;
72198;SDS011;60103;51.014;16.992;2022-07-06T00:36:24;16.90;;;6.80;;
72198;SDS011;60103;51.014;16.992;2022-07-06T00:38:51;13.40;;;6.50;;
72198;SDS011;60103;51.014;16.992;2022-07-06T00:41:18;12.50;;;6.80;;
72198;SDS011;60103;51.014;16.992;2022-07-06T00:43:49;13.90;;;6.80;;
72198;SDS011;60103;51.014;16.992;2022-07-06T00:46:18;14.30;;;6.10;;
72198;SDS011;60103;51.014;16.992;2022-07-06T00:48:46;12.50;;;6.50;;
72198;SDS011;60103;51.014;16.992;2022-07-06T00:51:13;15.10;;;6.40;;
72198;SDS011;60103;51.014;16.992;2022-07-06T00:53:40;13.90;;;6.50;;
72198;SDS011;60103;51.014;16.992;2022-07-06T00:56:08;17.60;;;6.70;;
72198;SDS011;60103;51.014;16.992;2022-07-06T00:58:36;13.00;;;7.10;;
72198;SDS011;60103;51.014;16.992;2022-07-06T01:01:03;15.90;;;7.20;;
72198;SDS011;60103;51.014;16.992;2022-07-06T01:03:31;15.60;;;7.00;;
72198;SDS011;60103;51.014;16.992;2022-07-06T01:06:00;15.10;;;7.40;;
72198;SDS011;60103;51.014;16.992;2022-07-06T01:08:28;15.40;;;6.80;;
72198;SDS011;60103;51.014;16.992;2022-07-06T01:10:55;15.80;;;6.90;;
72198;SDS011;60103;51.014;16.992;2022-07-06T01:13:22;13.20;;;6.00;;
72198;SDS011;60103;51.014;16.992;2022-07-06T01:15:51;14.30;;;6.30;;
72198;SDS011;60103;51.014;16.992;2022-07-06T01:18:18;12.20;;;6.00;;
72198;SDS011;60103;51.014;16.992;2022-07-06T01:20:46;13.60;;;7.00;;
72198;SDS011;60103;51.014;16.992;2022-07-06T01:23:13;14.30;;;7.20;;
72198;SDS011;60103;51.014;16.992;2022-07-06T01:25:41;14.20;;;7.00;;
72198;SDS011;60103;51.014;16.992;2022-07-06T01:28:08;17.20;;;7.10;;
72198;SDS011;60103;51.014;16.992;2022-07-06T01:30:35;12.70;;;6.50;;
72198;SDS011;60103;51.014;16.992;2022-07-06T01:33:03;15.20;;;6.90;;
72198;SDS011;60103;51.014;16.992;2022-07-06T01:35:31;16.30;;;7.50;;
72198;SDS011;60103;51.014;16.992;2022-07-06T01:37:59;13.70;;;6.50;;
72198;SDS011;60103;51.014;16.992;2022-07-06T01:40:27;14.10;;;6.70;;
72198;SDS011;60103;51.014;16.992;2022-07-06T01:42:55;13.00;;;7.20;;
72198;SDS011;60103;51.014;16.992;2022-07-06T01:45:23;16.20;;;7.00;;
72198;SDS011;60103;51.014;16.992;2022-07-06T01:47:50;15.50;;;7.30;;
72198;SDS011;60103;51.014;16.992;2022-07-06T01:50:18;14.90;;;6.80;;
72198;SDS011;60103;51.014;16.992;2022-07-06T01:52:46;15.30;;;6.90;;
72198;SDS011;60103;51.014;16.992;2022-07-06T01:55:14;13.50;;;6.90;;
72198;SDS011;60103;51.014;16.992;2022-07-06T01:57:41;11.20;;;5.50;;
72198;SDS011;60103;51.014;16.992;2022-07-06T02:00:10;11.40;;;6.00;;
72198;SDS011;60103;51.014;16.992;2022-07-06T02:02:42;14.90;;;6.80;;
72198;SDS011;60103;51.014;16.992;2022-07-06T02:05:10;14.90;;;6.90;;
72198;SDS011;60103;51.014;16.992;2022-07-06T02:07:38;16.10;;;7.00;;
72198;SDS011;60103;51.014;16.992;2022-07-06T02:10:06;16.20;;;7.50;;
72198;SDS011;60103;51.014;16.992;2022-07-06T02:12:34;12.70;;;7.60;;
72198;SDS011;60103;51.014;16.992;2022-07-06T02:15:02;15.60;;;7.20;;
72198;SDS011;60103;51.014;16.992;2022-07-06T02:17:30;14.50;;;7.50;;
72198;SDS011;60103;51.014;16.992;2022-07-06T02:19:57;16.00;;;7.70;;
72198;SDS011;60103;51.014;16.992;2022-07-06T02:22:24;15.10;;;8.10;;
72198;SDS011;60103;51.014;16.992;2022-07-06T02:24:52;17.60;;;7.80;;
72198;SDS011;60103;51.014;16.992;2022-07-06T02:27:19;19.50;;;6.70;;
72198;SDS011;60103;51.014;16.992;2022-07-06T02:29:47;13.00;;;6.70;;
72198;SDS011;60103;51.014;16.992;2022-07-06T02:32:14;14.70;;;7.20;;
72198;SDS011;60103;51.014;16.992;2022-07-06T02:34:42;12.70;;;6.90;;
72198;SDS011;60103;51.014;16.992;2022-07-06T02:37:10;16.40;;;7.10;;
72198;SDS011;60103;51.014;16.992;2022-07-06T02:39:38;15.00;;;6.10;;
72198;SDS011;60103;51.014;16.992;2022-07-06T02:42:05;15.80;;;6.30;;
72198;SDS011;60103;51.014;16.992;2022-07-06T02:44:33;13.20;;;6.50;;
72198;SDS011;60103;51.014;16.992;2022-07-06T02:47:01;18.40;;;7.50;;
72198;SDS011;60103;51.014;16.992;2022-07-06T02:49:28;19.00;;;7.20;;
72198;SDS011;60103;51.014;16.992;2022-07-06T02:51:56;15.00;;;7.50;;
72198;SDS011;60103;51.014;16.992;2022-07-06T02:54:23;15.90;;;7.70;;
72198;SDS011;60103;51.014;16.992;2022-07-06T02:56:51;15.40;;;8.30;;
72198;SDS011;60103;51.014;16.992;2022-07-06T02:59:20;13.00;;;6.50;;
72198;SDS011;60103;51.014;16.992;2022-07-06T03:01:48;17.00;;;6.50;;
72198;SDS011;60103;51.014;16.992;2022-07-06T03:04:15;14.60;;;6.80;;
72198;SDS011;60103;51.014;16.992;2022-07-06T03:06:43;16.80;;;7.10;;
72198;SDS011;60103;51.014;16.992;2022-07-06T03:09:10;12.40;;;6.90;;
72198;SDS011;60103;51.014;16.992;2022-07-06T03:11:38;14.50;;;7.70;;
72198;SDS011;60103;51.014;16.992;2022-07-06T03:14:07;17.40;;;7.90;;
72198;SDS011;60103;51.014;16.992;2022-07-06T03:16:35;16.50;;;7.80;;
72198;SDS011;60103;51.014;16.992;2022-07-06T03:19:03;16.40;;;7.80;;
72198;SDS011;60103;51.014;16.992;2022-07-06T03:21:30;16.00;;;7.00;;
72198;SDS011;60103;51.014;16.992;2022-07-06T03:23:58;19.00;;;7.90;;
72198;SDS011;60103;51.014;16.992;2022-07-06T03:26:26;12.70;;;6.00;;
72198;SDS011;60103;51.014;16.992;2022-07-06T03:28:55;16.90;;;7.90;;
72198;SDS011;60103;51.014;16.992;2022-07-06T03:31:22;17.50;;;9.20;;
72198;SDS011;60103;51.014;16.992;2022-07-06T03:33:51;16.10;;;8.60;;
72198;SDS011;60103;51.014;16.992;2022-07-06T03:36:19;15.60;;;6.50;;
72198;SDS011;60103;51.014;16.992;2022-07-06T03:38:47;12.10;;;6.50;;
72198;SDS011;60103;51.014;16.992;2022-07-06T03:41:15;13.70;;;7.20;;
72198;SDS011;60103;51.014;16.992;2022-07-06T03:43:44;17.30;;;7.40;;
72198;SDS011;60103;51.014;16.992;2022-07-06T03:46:11;13.20;;;5.60;;
72198;SDS011;60103;51.014;16.992;2022-07-06T03:48:39;12.30;;;4.90;;
72198;SDS011;60103;51.014;16.992;2022-07-06T03:51:07;10.60;;;5.40;;
72198;SDS011;60103;51.014;16.992;2022-07-06T03:53:34;14.80;;;6.30;;
72198;SDS011;60103;51.014;16.992;2022-07-06T03:56:02;13.20;;;5.20;;
72198;SDS011;60103;51.014;16.992;2022-07-06T03:58:49;12.90;;;5.30;;
72198;SDS011;60103;51.014;16.992;2022-07-06T04:01:17;13.00;;;5.00;;
72198;SDS011;60103;51.014;16.992;2022-07-06T04:03:44;13.60;;;6.00;;
72198;SDS011;60103;51.014;16.992;2022-07-06T04:06:12;12.40;;;5.30;;
72198;SDS011;60103;51.014;16.992;2022-07-06T04:08:39;13.50;;;5.60;;
72198;SDS011;60103;51.014;16.992;2022-07-06T04:11:07;11.10;;;4.30;;
72198;SDS011;60103;51.014;16.992;2022-07-06T04:13:35;11.30;;;4.40;;
72198;SDS011;60103;51.014;16.992;2022-07-06T04:16:02;9.60;;;4.20;;
72198;SDS011;60103;51.014;16.992;2022-07-06T04:18:30;13.20;;;4.50;;
72198;SDS011;60103;51.014;16.992;2022-07-06T04:20:58;7.80;;;3.30;;
72198;SDS011;60103;51.014;16.992;2022-07-06T04:23:26;11.20;;;4.80;;
72198;SDS011;60103;51.014;16.992;2022-07-06T04:25:54;11.20;;;4.60;;
72198;SDS011;60103;51.014;16.992;2022-07-06T04:28:22;12.70;;;4.70;;
72198;SDS011;60103;51.014;16.992;2022-07-06T04:30:50;10.20;;;4.10;;
72198;SDS011;60103;51.014;16.992;2022-07-06T04:33:20;10.10;;;4.40;;
72198;SDS011;60103;51.014;16.992;2022-07-06T04:35:48;9.50;;;4.50;;
72198;SDS011;60103;51.014;16.992;2022-07-06T04:38:15;12.50;;;4.10;;
72198;SDS011;60103;51.014;16.992;2022-07-06T04:40:43;8.80;;;4.70;;
72198;SDS011;60103;51.014;16.992;2022-07-06T04:43:14;7.90;;;3.90;;
72198;SDS011;60103;51.014;16.992;2022-07-06T04:45:43;9.80;;;4.10;;
72198;SDS011;60103;51.014;16.992;2022-07-06T04:48:10;11.00;;;4.20;;
72198;SDS011;60103;51.014;16.992;2022-07-06T04:50:38;9.10;;;4.10;;
72198;SDS011;60103;51.014;16.992;2022-07-06T04:53:09;10.00;;;4.10;;
72198;SDS011;60103;51.014;16.992;2022-07-06T04:55:37;10.00;;;3.70;;
72198;SDS011;60103;51.014;16.992;2022-07-06T04:58:05;11.80;;;4.20;;
72198;SDS011;60103;51.014;16.992;2022-07-06T05:00:33;9.80;;;4.30;;
72198;SDS011;60103;51.014;16.992;2022-07-06T05:03:01;8.90;;;3.70;;
72198;SDS011;60103;51.014;16.992;2022-07-06T05:05:29;9.30;;;4.30;;
72198;SDS011;60103;51.014;16.992;2022-07-06T05:07:56;7.80;;;3.30;;
72198;SDS011;60103;51.014;16.992;2022-07-06T05:10:24;10.80;;;5.10;;
72198;SDS011;60103;51.014;16.992;2022-07-06T05:12:53;8.70;;;3.60;;
72198;SDS011;60103;51.014;16.992;2022-07-06T05:15:22;9.20;;;3.00;;
72198;SDS011;60103;51.014;16.992;2022-07-06T05:17:49;8.10;;;3.70;;
72198;SDS011;60103;51.014;16.992;2022-07-06T05:20:17;8.80;;;3.50;;
72198;SDS011;60103;51.014;16.992;2022-07-06T05:22:45;9.20;;;3.70;;
72198;SDS011;60103;51.014;16.992;2022-07-06T05:25:15;7.80;;;3.30;;
72198;SDS011;60103;51.014;16.992;2022-07-06T05:27:42;7.50;;;3.20;;
72198;SDS011;60103;51.014;16.992;2022-07-06T05:30:10;11.10;;;3.60;;
72198;SDS011;60103;51.014;16.992;2022-07-06T05:32:38;7.80;;;3.10;;
72198;SDS011;60103;51.014;16.992;2022-07-06T05:35:05;9.20;;;3.00;;
72198;SDS011;60103;51.014;16.992;2022-07-06T05:37:54;7.90;;;3.40;;
72198;SDS011;60103;51.014;16.992;2022-07-06T05:40:21;9.20;;;3.70;;
72198;SDS011;60103;51.014;16.992;2022-07-06T05:42:49;7.70;;;3.60;;
72198;SDS011;60103;51.014;16.992;2022-07-06T05:45:18;8.80;;;3.50;;
72198;SDS011;60103;51.014;16.992;2022-07-06T05:47:45;9.00;;;3.90;;
72198;SDS011;60103;51.014;16.992;2022-07-06T05:50:32;8.30;;;3.20;;
72198;SDS011;60103;51.014;16.992;2022-07-06T05:53:00;8.10;;;3.50;;
72198;SDS011;60103;51.014;16.992;2022-07-06T05:55:41;8.10;;;3.80;;
72198;SDS011;60103;51.014;16.992;2022-07-06T05:58:08;8.80;;;3.70;;
72198;SDS011;60103;51.014;16.992;2022-07-06T06:00:36;8.70;;;3.60;;
72198;SDS011;60103;51.014;16.992;2022-07-06T06:03:06;8.20;;;3.80;;
72198;SDS011;60103;51.014;16.992;2022-07-06T06:05:34;8.00;;;3.80;;
72198;SDS011;60103;51.014;16.992;2022-07-06T06:08:03;9.00;;;4.00;;
72198;SDS011;60103;51.014;16.992;2022-07-06T06:10:31;11.40;;;4.10;;
72198;SDS011;60103;51.014;16.992;2022-07-06T06:13:01;8.40;;;3.80;;
72198;SDS011;60103;51.014;16.992;2022-07-06T06:15:30;8.80;;;4.10;;
72198;SDS011;60103;51.014;16.992;2022-07-06T06:17:58;8.10;;;3.70;;
72198;SDS011;60103;51.014;16.992;2022-07-06T06:20:26;9.20;;;4.10;;
72198;SDS011;60103;51.014;16.992;2022-07-06T06:22:55;7.40;;;3.00;;
72198;SDS011;60103;51.014;16.992;2022-07-06T06:25:35;6.80;;;2.50;;
72198;SDS011;60103;51.014;16.992;2022-07-06T06:28:06;8.80;;;3.70;;
72198;SDS011;60103;51.014;16.992;2022-07-06T06:30:35;8.70;;;2.70;;
72198;SDS011;60103;51.014;16.992;2022-07-06T06:33:05;7.10;;;3.10;;
72198;SDS011;60103;51.014;16.992;2022-07-06T06:35:43;8.50;;;3.30;;
72198;SDS011;60103;51.014;16.992;2022-07-06T06:38:11;6.60;;;2.70;;
72198;SDS011;60103;51.014;16.992;2022-07-06T06:40:39;7.10;;;2.70;;
72198;SDS011;60103;51.014;16.992;2022-07-06T06:43:07;8.60;;;2.80;;
72198;SDS011;60103;51.014;16.992;2022-07-06T06:45:41;8.40;;;2.70;;
72198;SDS011;60103;51.014;16.992;2022-07-06T06:48:08;7.70;;;2.70;;
72198;SDS011;60103;51.014;16.992;2022-07-06T06:50:43;6.90;;;3.00;;
72198;SDS011;60103;51.014;16.992;2022-07-06T06:53:11;7.80;;;3.30;;
72198;SDS011;60103;51.014;16.992;2022-07-06T06:55:39;8.90;;;2.70;;
72198;SDS011;60103;51.014;16.992;2022-07-06T06:58:06;6.80;;;2.70;;
72198;SDS011;60103;51.014;16.992;2022-07-06T07:00:34;7.30;;;2.20;;
72198;SDS011;60103;51.014;16.992;2022-07-06T07:03:02;6.60;;;2.70;;
72198;SDS011;60103;51.014;16.992;2022-07-06T07:05:29;7.90;;;3.10;;
72198;SDS011;60103;51.014;16.992;2022-07-06T07:07:56;7.10;;;2.50;;
72198;SDS011;60103;51.014;16.992;2022-07-06T07:10:31;7.60;;;3.30;;
72198;SDS011;60103;51.014;16.992;2022-07-06T07:12:59;7.70;;;2.90;;
72198;SDS011;60103;51.014;16.992;2022-07-06T07:15:26;7.60;;;3.20;;
72198;SDS011;60103;51.014;16.992;2022-07-06T07:17:54;6.00;;;2.50;;
72198;SDS011;60103;51.014;16.992;2022-07-06T07:20:21;6.50;;;2.70;;
72198;SDS011;60103;51.014;16.992;2022-07-06T07:22:49;7.00;;;2.70;;
72198;SDS011;60103;51.014;16.992;2022-07-06T07:25:16;8.80;;;2.80;;
72198;SDS011;60103;51.014;16.992;2022-07-06T07:27:44;6.70;;;2.60;;
72198;SDS011;60103;51.014;16.992;2022-07-06T07:30:11;7.80;;;2.70;;
72198;SDS011;60103;51.014;16.992;2022-07-06T07:32:39;7.80;;;2.60;;
72198;SDS011;60103;51.014;16.992;2022-07-06T07:35:07;7.40;;;2.80;;
72198;SDS011;60103;51.014;16.992;2022-07-06T07:37:35;7.30;;;2.50;;
72198;SDS011;60103;51.014;16.992;2022-07-06T07:40:03;6.90;;;2.50;;
72198;SDS011;60103;51.014;16.992;2022-07-06T07:42:32;7.60;;;2.80;;
72198;SDS011;60103;51.014;16.992;2022-07-06T07:45:00;8.00;;;2.90;;
72198;SDS011;60103;51.014;16.992;2022-07-06T07:47:28;7.90;;;2.30;;
72198;SDS011;60103;51.014;16.992;2022-07-06T07:49:55;6.50;;;2.20;;
72198;SDS011;60103;51.014;16.992;2022-07-06T07:52:23;6.30;;;2.30;;
72198;SDS011;60103;51.014;16.992;2022-07-06T07:54:50;6.50;;;2.30;;
72198;SDS011;60103;51.014;16.992;2022-07-06T07:57:38;6.80;;;2.60;;
72198;SDS011;60103;51.014;16.992;2022-07-06T08:00:05;6.20;;;2.40;;
72198;SDS011;60103;51.014;16.992;2022-07-06T08:02:39;6.40;;;2.60;;
72198;SDS011;60103;51.014;16.992;2022-07-06T08:05:07;6.40;;;2.30;;
72198;SDS011;60103;51.014;16.992;2022-07-06T08:07:34;7.00;;;2.80;;
72198;SDS011;60103;51.014;16.992;2022-07-06T08:10:02;6.30;;;2.50;;
72198;SDS011;60103;51.014;16.992;2022-07-06T08:12:31;7.50;;;2.30;;
72198;SDS011;60103;51.014;16.992;2022-07-06T08:14:58;6.30;;;2.40;;
72198;SDS011;60103;51.014;16.992;2022-07-06T08:17:26;8.00;;;2.60;;
72198;SDS011;60103;51.014;16.992;2022-07-06T08:19:53;8.40;;;2.30;;
72198;SDS011;60103;51.014;16.992;2022-07-06T08:22:20;7.50;;;2.20;;
72198;SDS011;60103;51.014;16.992;2022-07-06T08:24:47;6.40;;;2.50;;
72198;SDS011;60103;51.014;16.992;2022-07-06T08:27:15;7.30;;;2.20;;
72198;SDS011;60103;51.014;16.992;2022-07-06T08:29:43;6.50;;;2.50;;
72198;SDS011;60103;51.014;16.992;2022-07-06T08:32:11;6.50;;;2.50;;
72198;SDS011;60103;51.014;16.992;2022-07-06T08:34:55;5.70;;;1.60;;
72198;SDS011;60103;51.014;16.992;2022-07-06T08:37:22;5.70;;;2.30;;
72198;SDS011;60103;51.014;16.992;2022-07-06T08:39:50;6.50;;;2.60;;
72198;SDS011;60103;51.014;16.992;2022-07-06T08:42:17;9.60;;;2.20;;
72198;SDS011;60103;51.014;16.992;2022-07-06T08:44:44;7.40;;;2.30;;
72198;SDS011;60103;51.014;16.992;2022-07-06T08:47:12;6.50;;;2.40;;
72198;SDS011;60103;51.014;16.992;2022-07-06T08:49:41;6.80;;;2.30;;
72198;SDS011;60103;51.014;16.992;2022-07-06T08:52:09;6.80;;;2.60;;
72198;SDS011;60103;51.014;16.992;2022-07-06T08:54:37;6.50;;;2.10;;
72198;SDS011;60103;51.014;16.992;2022-07-06T08:57:05;6.70;;;2.40;;
72198;SDS011;60103;51.014;16.992;2022-07-06T08:59:32;7.00;;;2.10;;
72198;SDS011;60103;51.014;16.992;2022-07-06T09:02:02;7.40;;;2.10;;
72198;SDS011;60103;51.014;16.992;2022-07-06T09:04:32;5.70;;;2.10;;
72198;SDS011;60103;51.014;16.992;2022-07-06T09:07:00;6.50;;;2.10;;
72198;SDS011;60103;51.014;16.992;2022-07-06T09:09:28;6.40;;;2.10;;
72198;SDS011;60103;51.014;16.992;2022-07-06T09:11:57;7.60;;;2.30;;
72198;SDS011;60103;51.014;16.992;2022-07-06T09:14:29;5.10;;;2.00;;
72198;SDS011;60103;51.014;16.992;2022-07-06T09:17:04;6.40;;;1.80;;
72198;SDS011;60103;51.014;16.992;2022-07-06T09:19:40;8.20;;;2.10;;
72198;SDS011;60103;51.014;16.992;2022-07-06T09:22:08;6.50;;;2.40;;
72198;SDS011;60103;51.014;16.992;2022-07-06T09:24:37;8.90;;;2.70;;
72198;SDS011;60103;51.014;16.992;2022-07-06T09:27:14;5.40;;;1.80;;
72198;SDS011;60103;51.014;16.992;2022-07-06T09:29:44;6.30;;;2.10;;
72198;SDS011;60103;51.014;16.992;2022-07-06T09:32:12;6.40;;;2.40;;
72198;SDS011;60103;51.014;16.992;2022-07-06T09:34:44;7.60;;;1.90;;
72198;SDS011;60103;51.014;16.992;2022-07-06T09:37:13;9.60;;;2.30;;
72198;SDS011;60103;51.014;16.992;2022-07-06T09:39:41;6.70;;;2.40;;
72198;SDS011;60103;51.014;16.992;2022-07-06T09:42:10;6.70;;;2.20;;
72198;SDS011;60103;51.014;16.992;2022-07-06T09:44:39;7.00;;;1.90;;
72198;SDS011;60103;51.014;16.992;2022-07-06T09:47:08;6.90;;;2.10;;
72198;SDS011;60103;51.014;16.992;2022-07-06T09:49:37;6.50;;;2.20;;
72198;SDS011;60103;51.014;16.992;2022-07-06T09:52:09;5.80;;;2.00;;
72198;SDS011;60103;51.014;16.992;2022-07-06T09:54:37;5.80;;;2.00;;
72198;SDS011;60103;51.014;16.992;2022-07-06T09:57:06;6.50;;;2.40;;
72198;SDS011;60103;51.014;16.992;2022-07-06T09:59:36;6.00;;;2.30;;
72198;SDS011;60103;51.014;16.992;2022-07-06T10:02:05;6.80;;;2.60;;
72198;SDS011;60103;51.014;16.992;2022-07-06T10:04:33;7.10;;;2.10;;
72198;SDS011;60103;51.014;16.992;2022-07-06T10:07:01;6.00;;;1.80;;
72198;SDS011;60103;51.014;16.992;2022-07-06T10:09:29;6.80;;;1.80;;
72198;SDS011;60103;51.014;16.992;2022-07-06T10:11:59;5.90;;;1.90;;
72198;SDS011;60103;51.014;16.992;2022-07-06T10:14:31;5.80;;;1.90;;
72198;SDS011;60103;51.014;16.992;2022-07-06T10:17:00;6.90;;;1.80;;
72198;SDS011;60103;51.014;16.992;2022-07-06T10:19:30;5.90;;;1.80;;
72198;SDS011;60103;51.014;16.992;2022-07-06T10:21:58;6.60;;;2.10;;
72198;SDS011;60103;51.014;16.992;2022-07-06T10:24:28;5.60;;;2.00;;
72198;SDS011;60103;51.014;16.992;2022-07-06T10:26:56;5.30;;;1.70;;
72198;SDS011;60103;51.014;16.992;2022-07-06T10:29:24;5.90;;;1.80;;
72198;SDS011;60103;51.014;16.992;2022-07-06T10:31:53;6.50;;;1.90;;
72198;SDS011;60103;51.014;16.992;2022-07-06T10:34:22;5.20;;;1.80;;
72198;SDS011;60103;51.014;16.992;2022-07-06T10:36:50;6.70;;;1.70;;
72198;SDS011;60103;51.014;16.992;2022-07-06T10:39:33;4.60;;;1.60;;
72198;SDS011;60103;51.014;16.992;2022-07-06T10:43:22;5.00;;;1.50;;
72198;SDS011;60103;51.014;16.992;2022-07-06T10:51:01;6.30;;;1.50;;
72198;SDS011;60103;51.014;16.992;2022-07-06T10:53:34;7.60;;;1.90;;
72198;SDS011;60103;51.014;16.992;2022-07-06T10:56:09;6.30;;;1.50;;
72198;SDS011;60103;51.014;16.992;2022-07-06T10:58:45;5.80;;;1.70;;
72198;SDS011;60103;51.014;16.992;2022-07-06T11:01:15;8.00;;;1.60;;
72198;SDS011;60103;51.014;16.992;2022-07-06T11:04:06;5.60;;;1.40;;
72198;SDS011;60103;51.014;16.992;2022-07-06T11:06:38;5.60;;;1.60;;
72198;SDS011;60103;51.014;16.992;2022-07-06T11:09:07;6.50;;;1.90;;
72198;SDS011;60103;51.014;16.992;2022-07-06T11:11:38;6.10;;;2.10;;
72198;SDS011;60103;51.014;16.992;2022-07-06T11:14:09;5.40;;;1.70;;
72198;SDS011;60103;51.014;16.992;2022-07-06T11:21:51;6.30;;;1.90;;
72198;SDS011;60103;51.014;16.992;2022-07-06T11:24:26;4.90;;;1.40;;
72198;SDS011;60103;51.014;16.992;2022-07-06T11:26:55;7.50;;;1.80;;
72198;SDS011;60103;51.014;16.992;2022-07-06T11:29:24;5.60;;;2.10;;
72198;SDS011;60103;51.014;16.992;2022-07-06T11:31:54;6.50;;;2.00;;
72198;SDS011;60103;51.014;16.992;2022-07-06T11:34:29;5.30;;;1.60;;
72198;SDS011;60103;51.014;16.992;2022-07-06T11:36:59;5.60;;;1.60;;
72198;SDS011;60103;51.014;16.992;2022-07-06T11:39:29;6.00;;;2.00;;
72198;SDS011;60103;51.014;16.992;2022-07-06T11:41:57;7.30;;;1.90;;
72198;SDS011;60103;51.014;16.992;2022-07-06T11:44:25;7.20;;;1.70;;
72198;SDS011;60103;51.014;16.992;2022-07-06T11:46:52;7.00;;;1.80;;
72198;SDS011;60103;51.014;16.992;2022-07-06T11:49:23;6.00;;;1.70;;
72198;SDS011;60103;51.014;16.992;2022-07-06T11:51:50;6.10;;;1.30;;
72198;SDS011;60103;51.014;16.992;2022-07-06T11:54:19;5.60;;;1.50;;
72198;SDS011;60103;51.014;16.992;2022-07-06T11:56:48;4.90;;;1.50;;
72198;SDS011;60103;51.014;16.992;2022-07-06T11:59:16;6.20;;;1.90;;
72198;SDS011;60103;51.014;16.992;2022-07-06T12:01:47;4.80;;;1.70;;
72198;SDS011;60103;51.014;16.992;2022-07-06T12:04:15;7.40;;;1.50;;
72198;SDS011;60103;51.014;16.992;2022-07-06T12:06:44;5.60;;;1.90;;
72198;SDS011;60103;51.014;16.992;2022-07-06T12:09:11;5.20;;;1.30;;
72198;SDS011;60103;51.014;16.992;2022-07-06T12:11:39;4.70;;;1.40;;
72198;SDS011;60103;51.014;16.992;2022-07-06T12:14:15;6.30;;;1.50;;
72198;SDS011;60103;51.014;16.992;2022-07-06T12:16:45;5.30;;;1.50;;
72198;SDS011;60103;51.014;16.992;2022-07-06T12:19:13;4.50;;;1.70;;
72198;SDS011;60103;51.014;16.992;2022-07-06T12:21:42;5.30;;;1.50;;
72198;SDS011;60103;51.014;16.992;2022-07-06T12:24:20;6.00;;;1.70;;
72198;SDS011;60103;51.014;16.992;2022-07-06T12:26:49;6.30;;;1.60;;
72198;SDS011;60103;51.014;16.992;2022-07-06T12:29:18;6.20;;;1.60;;
72198;SDS011;60103;51.014;16.992;2022-07-06T12:31:50;6.30;;;1.30;;
72198;SDS011;60103;51.014;16.992;2022-07-06T12:34:23;7.30;;;1.30;;
72198;SDS011;60103;51.014;16.992;2022-07-06T12:36:52;5.00;;;1.40;;
72198;SDS011;60103;51.014;16.992;2022-07-06T12:39:21;7.30;;;1.50;;
72198;SDS011;60103;51.014;16.992;2022-07-06T12:41:55;4.30;;;1.10;;
72198;SDS011;60103;51.014;16.992;2022-07-06T12:44:30;5.80;;;1.60;;
72198;SDS011;60103;51.014;16.992;2022-07-06T12:47:08;4.10;;;1.20;;
72198;SDS011;60103;51.014;16.992;2022-07-06T12:49:38;4.90;;;1.40;;
72198;SDS011;60103;51.014;16.992;2022-07-06T12:54:44;6.30;;;1.40;;
72198;SDS011;60103;51.014;16.992;2022-07-06T12:57:18;5.00;;;1.10;;
72198;SDS011;60103;51.014;16.992;2022-07-06T12:59:47;4.70;;;1.20;;
72198;SDS011;60103;51.014;16.992;2022-07-06T13:02:21;4.90;;;1.20;;
72198;SDS011;60103;51.014;16.992;2022-07-06T13:05:26;5.00;;;1.30;;
72198;SDS011;60103;51.014;16.992;2022-07-06T13:07:57;4.40;;;1.20;;
72198;SDS011;60103;51.014;16.992;2022-07-06T13:10:25;5.60;;;1.40;;
72198;SDS011;60103;51.014;16.992;2022-07-06T13:12:54;5.60;;;1.10;;
72198;SDS011;60103;51.014;16.992;2022-07-06T13:15:21;4.70;;;0.90;;
72198;SDS011;60103;51.014;16.992;2022-07-06T13:17:48;5.80;;;1.30;;
72198;SDS011;60103;51.014;16.992;2022-07-06T13:20:16;3.90;;;1.00;;
72198;SDS011;60103;51.014;16.992;2022-07-06T13:22:44;6.10;;;1.50;;
72198;SDS011;60103;51.014;16.992;2022-07-06T13:25:13;4.30;;;0.80;;
72198;SDS011;60103;51.014;16.992;2022-07-06T13:27:40;6.40;;;1.10;;
72198;SDS011;60103;51.014;16.992;2022-07-06T13:30:08;4.30;;;1.20;;
72198;SDS011;60103;51.014;16.992;2022-07-06T13:32:37;5.20;;;1.20;;
72198;SDS011;60103;51.014;16.992;2022-07-06T13:35:06;4.90;;;1.30;;
72198;SDS011;60103;51.014;16.992;2022-07-06T13:37:35;3.90;;;1.00;;
72198;SDS011;60103;51.014;16.992;2022-07-06T13:40:02;5.60;;;1.20;;
72198;SDS011;60103;51.014;16.992;2022-07-06T13:42:30;4.10;;;1.30;;
72198;SDS011;60103;51.014;16.992;2022-07-06T13:44:57;3.90;;;1.30;;
72198;SDS011;60103;51.014;16.992;2022-07-06T13:47:25;6.50;;;1.40;;
72198;SDS011;60103;51.014;16.992;2022-07-06T13:49:52;4.70;;;1.30;;
72198;SDS011;60103;51.014;16.992;2022-07-06T13:52:20;5.80;;;1.20;;
72198;SDS011;60103;51.014;16.992;2022-07-06T13:54:49;6.60;;;1.30;;
72198;SDS011;60103;51.014;16.992;2022-07-06T13:57:16;7.10;;;1.40;;
72198;SDS011;60103;51.014;16.992;2022-07-06T13:59:44;5.20;;;1.20;;
72198;SDS011;60103;51.014;16.992;2022-07-06T14:02:13;6.60;;;1.00;;
72198;SDS011;60103;51.014;16.992;2022-07-06T14:04:40;4.40;;;1.40;;
72198;SDS011;60103;51.014;16.992;2022-07-06T14:07:08;6.10;;;1.30;;
72198;SDS011;60103;51.014;16.992;2022-07-06T14:09:35;4.80;;;1.20;;
72198;SDS011;60103;51.014;16.992;2022-07-06T14:12:02;5.30;;;1.40;;
72198;SDS011;60103;51.014;16.992;2022-07-06T14:14:30;4.60;;;1.20;;
72198;SDS011;60103;51.014;16.992;2022-07-06T14:16:57;3.30;;;1.30;;
72198;SDS011;60103;51.014;16.992;2022-07-06T14:19:25;4.40;;;1.30;;
72198;SDS011;60103;51.014;16.992;2022-07-06T14:21:53;4.00;;;1.40;;
72198;SDS011;60103;51.014;16.992;2022-07-06T14:24:20;5.20;;;1.70;;
72198;SDS011;60103;51.014;16.992;2022-07-06T14:26:47;4.20;;;1.40;;
72198;SDS011;60103;51.014;16.992;2022-07-06T14:29:15;5.20;;;1.70;;
72198;SDS011;60103;51.014;16.992;2022-07-06T14:31:42;5.60;;;1.30;;
72198;SDS011;60103;51.014;16.992;2022-07-06T14:34:10;7.20;;;1.90;;
72198;SDS011;60103;51.014;16.992;2022-07-06T14:36:38;5.40;;;1.60;;
72198;SDS011;60103;51.014;16.992;2022-07-06T14:39:06;5.00;;;1.40;;
72198;SDS011;60103;51.014;16.992;2022-07-06T14:41:33;4.70;;;1.60;;
72198;SDS011;60103;51.014;16.992;2022-07-06T14:44:02;4.90;;;1.40;;
72198;SDS011;60103;51.014;16.992;2022-07-06T14:46:30;5.00;;;1.50;;
72198;SDS011;60103;51.014;16.992;2022-07-06T14:48:58;6.70;;;1.80;;
72198;SDS011;60103;51.014;16.992;2022-07-06T14:51:25;5.00;;;1.50;;
72198;SDS011;60103;51.014;16.992;2022-07-06T14:53:53;7.00;;;1.70;;
72198;SDS011;60103;51.014;16.992;2022-07-06T14:56:20;5.90;;;1.80;;